Time;durP1;ratioP1;P1;durP2;ratioP2;P2;SDS_P1;SDS_P2;PMS_P1;PMS_P2;Temp;Humidity;BMP_temperature;BMP_pressure;BME280_temperature;BME280_humidity;BME280_pressure;Samples;Min_cycle;Max_cycle;Signal;HPM_P1;HPM_P2
2021/12/18 00:00:19;;;;;;;;;44.75;33.50;;;;;7.21;74.85;102990.38;5057623;27;45498;-63
2021/12/18 00:02:44;;;;;;;;;37.50;34.50;;;;;7.21;74.87;102988.59;5078307;27;45594;-63
2021/12/18 00:05:10;;;;;;;;;37.00;33.75;;;;;7.15;75.09;102995.66;5085891;27;45283;-65
2021/12/18 00:07:35;;;;;;;;;41.25;32.25;;;;;7.10;74.49;102978.06;5079367;27;45561;-61
2021/12/18 00:10:03;;;;;;;;;36.00;29.00;;;;;7.06;75.37;102989.53;5060743;28;45470;-63
2021/12/18 00:12:29;;;;;;;;;32.50;27.00;;;;;7.05;75.14;102982.50;5059540;27;45591;-60
2021/12/18 00:14:56;;;;;;;;;34.25;32.00;;;;;7.01;74.83;102975.44;5071955;27;45332;-62
2021/12/18 00:17:22;;;;;;;;;39.00;33.50;;;;;7.06;74.94;102981.59;5062428;28;45316;-61
2021/12/18 00:19:48;;;;;;;;;34.50;31.25;;;;;7.00;74.99;102965.72;5078803;28;45855;-60
2021/12/18 00:22:13;;;;;;;;;40.00;34.25;;;;;7.01;74.58;102985.13;5079253;27;45227;-62
2021/12/18 00:24:39;;;;;;;;;30.00;28.25;;;;;6.98;75.24;102980.75;5080345;27;45512;-63
2021/12/18 00:27:05;;;;;;;;;37.50;30.25;;;;;6.86;75.32;102967.53;5062196;28;45595;-63
2021/12/18 00:29:30;;;;;;;;;38.75;32.00;;;;;6.96;75.11;102971.94;5056872;28;45418;-65
2021/12/18 00:31:57;;;;;;;;;36.75;29.25;;;;;6.97;75.23;102978.97;5065462;27;45473;-62
2021/12/18 00:34:22;;;;;;;;;38.00;34.75;;;;;6.97;74.48;102965.75;5099694;27;45363;-63
2021/12/18 00:36:48;;;;;;;;;35.50;29.25;;;;;7.00;74.13;102971.03;5093934;27;45524;-62
2021/12/18 00:39:15;;;;;;;;;38.50;28.75;;;;;6.98;74.79;102974.56;5078058;28;45478;-61
2021/12/18 00:42:47;;;;;;;;;31.25;24.25;;;;;6.97;74.22;102970.16;5095449;27;45591;-65
2021/12/18 00:44:37;;;;;;;;;32.75;29.50;;;;;6.96;74.82;102966.63;5068877;27;45451;-64
2021/12/18 00:47:02;;;;;;;;;24.75;23.50;;;;;6.93;74.50;102969.31;5058075;28;45539;-61
2021/12/18 00:49:28;;;;;;;;;32.00;30.25;;;;;6.86;74.32;102962.25;5057393;28;46122;-64
2021/12/18 00:51:53;;;;;;;;;36.00;29.75;;;;;6.88;74.25;102962.25;5056145;28;45663;-64
2021/12/18 00:54:19;;;;;;;;;31.75;28.50;;;;;6.82;74.56;102952.56;5060655;28;45227;-65
2021/12/18 00:56:45;;;;;;;;;39.50;33.00;;;;;6.82;74.37;102957.00;5072342;28;45769;-64
2021/12/18 00:59:10;;;;;;;;;28.25;27.25;;;;;6.77;74.08;102946.41;5068062;28;47566;-64
2021/12/18 01:01:36;;;;;;;;;29.50;25.75;;;;;6.72;73.96;102943.78;5059837;28;45403;-63
2021/12/18 01:04:02;;;;;;;;;28.50;27.00;;;;;6.72;74.59;102956.13;5082701;27;45364;-61
2021/12/18 01:06:27;;;;;;;;;27.50;24.75;;;;;6.69;74.54;102958.78;5079582;27;45547;-61
2021/12/18 01:08:56;;;;;;;;;31.00;27.00;;;;;6.70;74.11;102957.91;5058530;28;46959;-64
2021/12/18 01:14:07;;;;;;;;;36.50;28.00;;;;;6.72;74.52;102961.41;5073078;28;45527;-63
2021/12/18 01:16:48;;;;;;;;;31.75;26.25;;;;;6.56;74.66;102954.41;5051536;28;45448;-62
2021/12/18 01:24:42;;;;;;;;;35.25;25.00;;;;;6.59;74.05;102962.31;5073184;28;45480;-65
2021/12/18 01:27:08;;;;;;;;;29.75;23.75;;;;;6.58;74.00;102965.84;5078243;28;45603;-64
2021/12/18 01:29:34;;;;;;;;;26.75;24.00;;;;;6.56;73.91;102976.44;5058544;28;46071;-64
2021/12/18 01:31:59;;;;;;;;;28.50;25.00;;;;;6.58;73.68;102965.84;5078767;27;45415;-62
2021/12/18 01:34:25;;;;;;;;;23.00;21.00;;;;;6.47;73.72;102944.72;5076892;27;45564;-63
2021/12/18 01:36:50;;;;;;;;;28.00;26.50;;;;;6.45;74.62;102952.66;5077238;28;45453;-61
2021/12/18 01:39:15;;;;;;;;;37.75;34.25;;;;;6.44;74.01;102961.47;5077362;28;45297;-62
2021/12/18 01:42:10;;;;;;;;;34.25;29.25;;;;;6.47;73.89;102987.00;5059473;28;45352;-62
2021/12/18 01:52:43;;;;;;;;;30.25;24.25;;;;;6.41;74.27;102984.38;5077402;28;45540;-61
2021/12/18 01:55:11;;;;;;;;;31.00;24.25;;;;;6.43;73.81;102980.84;5077154;28;45391;-60
2021/12/18 01:57:37;;;;;;;;;28.00;25.75;;;;;6.40;74.20;102975.56;5079683;27;45388;-63
2021/12/18 02:00:18;;;;;;;;;27.25;20.00;;;;;6.40;74.07;102983.50;5038461;28;46221;-61
2021/12/18 02:02:43;;;;;;;;;33.50;30.75;;;;;6.40;73.50;102975.56;5076436;27;45398;-66
2021/12/18 02:05:09;;;;;;;;;33.00;30.25;;;;;6.37;74.53;102970.25;5075519;28;45483;-61
2021/12/18 02:07:35;;;;;;;;;25.75;23.00;;;;;6.34;73.96;102975.56;5079342;27;46772;-63
2021/12/18 02:10:05;;;;;;;;;23.50;22.50;;;;;6.31;74.01;102978.22;5059333;28;45430;-62
2021/12/18 02:12:42;;;;;;;;;28.00;24.50;;;;;6.32;74.49;102992.31;5074364;27;45299;-65
2021/12/18 02:20:48;;;;;;;;;32.75;25.75;;;;;6.27;73.95;102984.38;5094132;27;45342;-59
2021/12/18 02:23:15;;;;;;;;;29.75;29.25;;;;;6.27;74.57;102992.31;5089480;27;45342;-61
2021/12/18 02:25:41;;;;;;;;;25.50;21.50;;;;;6.25;74.35;102986.16;5076267;27;45489;-61
2021/12/18 02:28:14;;;;;;;;;32.00;29.50;;;;;6.18;74.20;102979.09;5077114;27;45337;-64
2021/12/18 02:30:39;;;;;;;;;29.00;24.00;;;;;6.18;73.81;102981.75;5081226;27;46154;-61
2021/12/18 02:33:04;;;;;;;;;27.75;25.75;;;;;6.17;74.54;102969.41;5088985;27;45413;-62
2021/12/18 02:35:40;;;;;;;;;28.00;26.00;;;;;6.18;74.35;102981.75;5058398;27;45580;-62
2021/12/18 02:38:14;;;;;;;;;18.00;16.50;;;;;6.18;73.90;102979.97;5081619;27;45538;-61
2021/12/18 02:43:12;;;;;;;;;26.25;21.25;;;;;6.19;73.84;102983.50;5077891;27;45545;-62
2021/12/18 02:45:38;;;;;;;;;25.00;22.50;;;;;6.11;74.39;102972.03;5062423;27;45334;-63
2021/12/18 02:48:03;;;;;;;;;29.00;24.25;;;;;6.08;74.03;102964.13;5089685;27;45326;-62
2021/12/18 02:50:29;;;;;;;;;38.00;32.50;;;;;6.09;74.92;102974.69;5061061;27;46834;-63
2021/12/18 02:52:54;;;;;;;;;30.00;23.50;;;;;6.08;74.73;102966.75;5097527;27;45225;-62
2021/12/18 02:55:20;;;;;;;;;29.00;24.75;;;;;6.14;74.49;102983.50;5081033;27;45459;-60
2021/12/18 02:57:45;;;;;;;;;31.50;29.75;;;;;6.15;74.33;102979.97;5076917;28;45480;-64
2021/12/18 03:00:11;;;;;;;;;26.00;24.75;;;;;6.14;74.46;102978.22;5057996;27;47953;-62
2021/12/18 03:02:42;;;;;;;;;38.25;27.25;;;;;6.10;73.80;102983.47;5081358;27;45442;-62
2021/12/18 03:05:10;;;;;;;;;27.25;27.00;;;;;6.09;73.98;102972.03;5077617;27;45468;-63
2021/12/18 03:07:37;;;;;;;;;30.75;26.25;;;;;6.09;74.92;102976.44;5060863;28;45482;-61
2021/12/18 03:23:47;;;;;;;;;34.50;28.50;;;;;6.24;74.46;102978.19;5089680;27;45395;-64
2021/12/18 03:26:14;;;;;;;;;35.00;31.00;;;;;6.26;74.36;102982.63;5080549;27;45895;-61
2021/12/18 03:28:40;;;;;;;;;32.75;29.75;;;;;6.22;73.93;102975.56;5071342;27;45540;-61
2021/12/18 03:31:05;;;;;;;;;25.00;23.50;;;;;6.21;75.18;102974.69;5054426;28;47636;-63
2021/12/18 03:33:31;;;;;;;;;31.75;26.50;;;;;6.30;74.33;102979.09;5068136;27;45262;-59
2021/12/18 03:35:57;;;;;;;;;28.50;24.00;;;;;6.28;74.99;102967.66;5054515;28;45280;-63
2021/12/18 03:38:22;;;;;;;;;35.00;28.50;;;;;6.33;74.55;102980.84;5075536;28;45219;-62
2021/12/18 03:40:48;;;;;;;;;31.50;23.50;;;;;6.29;75.17;102966.78;5081461;27;46213;-64
2021/12/18 03:43:14;;;;;;;;;28.50;24.75;;;;;6.29;75.28;102961.47;5082206;27;45410;-61
2021/12/18 03:45:39;;;;;;;;;28.25;23.75;;;;;6.29;75.16;102958.84;5077141;27;45397;-62
2021/12/18 03:48:05;;;;;;;;;27.25;26.00;;;;;6.32;74.75;102961.47;5055450;28;45592;-61
2021/12/18 03:50:30;;;;;;;;;33.00;29.50;;;;;6.34;75.44;102951.78;5079515;27;46226;-59
2021/12/18 03:52:56;;;;;;;;;38.00;28.00;;;;;6.43;74.87;102953.53;5076075;27;45533;-60
2021/12/18 03:55:21;;;;;;;;;31.50;27.00;;;;;6.38;74.69;102942.97;5075395;27;45468;-63
2021/12/18 03:57:47;;;;;;;;;34.75;30.00;;;;;6.41;75.31;102950.91;5089119;27;45362;-61
2021/12/18 04:00:15;;;;;;;;;40.75;24.50;;;;;6.44;75.38;102940.31;5095358;27;45398;-63
2021/12/18 04:02:41;;;;;;;;;34.25;30.25;;;;;6.48;74.55;102947.34;5047459;28;45425;-62
2021/12/18 04:05:08;;;;;;;;;34.00;26.50;;;;;6.53;74.93;102943.84;5070042;27;45441;-61
2021/12/18 04:07:41;;;;;;;;;37.50;25.25;;;;;6.56;75.15;102946.47;5075268;27;45423;-63
2021/12/18 04:10:08;;;;;;;;;29.50;24.75;;;;;6.60;74.36;102937.63;5075250;27;46104;-63
2021/12/18 04:12:33;;;;;;;;;31.50;26.75;;;;;6.68;74.55;102949.97;5078250;27;45365;-63
2021/12/18 04:14:58;;;;;;;;;31.75;26.00;;;;;6.72;74.42;102948.19;5056787;28;45545;-62
2021/12/18 04:17:24;;;;;;;;;26.00;23.50;;;;;6.69;74.66;102948.22;5075854;27;45593;-61
2021/12/18 04:19:49;;;;;;;;;31.00;27.25;;;;;6.71;75.18;102949.06;5073765;27;45587;-60
2021/12/18 04:22:15;;;;;;;;;31.50;25.75;;;;;6.75;75.10;102956.09;5075222;28;45432;-59
2021/12/18 04:24:40;;;;;;;;;25.75;23.00;;;;;6.79;74.28;102955.25;5074087;28;45454;-60
2021/12/18 04:27:05;;;;;;;;;27.25;27.00;;;;;6.76;74.77;102942.00;5062574;28;45717;-66
2021/12/18 04:29:31;;;;;;;;;36.00;31.75;;;;;6.82;74.79;102949.94;5074951;28;45512;-62
2021/12/18 04:31:56;;;;;;;;;26.25;24.75;;;;;6.80;75.15;102954.34;5075531;27;45437;-61
2021/12/18 04:34:22;;;;;;;;;39.25;32.75;;;;;6.79;75.53;102942.00;5074727;27;45458;-61
2021/12/18 04:36:47;;;;;;;;;29.00;25.75;;;;;6.79;75.25;102947.31;5053704;28;45442;-59
2021/12/18 04:39:13;;;;;;;;;32.25;26.00;;;;;6.87;75.38;102944.63;5060659;28;46334;-59
2021/12/18 04:41:42;;;;;;;;;23.25;21.00;;;;;6.94;74.97;102956.97;5074681;27;45408;-62
2021/12/18 04:44:11;;;;;;;;;29.00;26.25;;;;;6.96;75.05;102945.47;5075037;28;45542;-61
2021/12/18 04:46:37;;;;;;;;;32.00;26.00;;;;;6.97;74.50;102941.94;5070362;27;45717;-59
2021/12/18 04:49:03;;;;;;;;;28.50;23.00;;;;;6.99;74.61;102952.50;5056922;27;48177;-60
2021/12/18 04:51:29;;;;;;;;;33.75;29.75;;;;;6.95;75.61;102946.38;5087006;27;45475;-61
2021/12/18 04:53:54;;;;;;;;;31.75;24.25;;;;;6.96;74.85;102945.47;5078130;28;45517;-60
2021/12/18 04:56:19;;;;;;;;;33.75;27.00;;;;;6.95;75.15;102962.25;5078543;27;45452;-63
2021/12/18 04:58:45;;;;;;;;;35.25;31.00;;;;;6.95;74.96;102958.72;5078705;28;45242;-61
2021/12/18 05:01:10;;;;;;;;;27.25;25.25;;;;;6.96;75.16;102956.06;5080830;27;45425;-60
2021/12/18 05:03:38;;;;;;;;;38.50;26.25;;;;;6.91;74.59;102947.28;5070181;28;45502;-62
2021/12/18 05:06:04;;;;;;;;;30.50;28.00;;;;;6.98;74.75;102956.94;5084552;27;45507;-60
2021/12/18 05:08:29;;;;;;;;;30.75;24.00;;;;;6.98;74.97;102961.34;5095391;27;46167;-60
2021/12/18 05:10:55;;;;;;;;;34.50;27.50;;;;;7.04;74.73;102963.97;5078790;27;45341;-60
2021/12/18 05:13:20;;;;;;;;;38.00;30.75;;;;;7.06;74.53;102962.19;5059995;28;45434;-60
2021/12/18 05:15:46;;;;;;;;;31.75;27.50;;;;;7.10;74.57;102963.94;5081751;27;45412;-61
2021/12/18 05:18:12;;;;;;;;;30.50;23.50;;;;;7.05;73.99;102950.75;5058233;28;45437;-60
2021/12/18 05:20:38;;;;;;;;;33.50;24.75;;;;;7.08;73.79;102958.66;5058466;28;45707;-60
2021/12/18 05:23:04;;;;;;;;;27.75;26.50;;;;;7.10;74.39;102967.47;5077975;28;45552;-61
2021/12/18 05:25:29;;;;;;;;;37.50;28.00;;;;;7.14;73.93;102970.97;5090391;27;45636;-62
2021/12/18 05:27:55;;;;;;;;;30.00;26.25;;;;;7.12;73.61;102956.88;5097473;27;46021;-65
2021/12/18 05:30:20;;;;;;;;;33.75;25.50;;;;;7.11;73.87;102960.41;5080102;27;45354;-59
2021/12/18 05:32:46;;;;;;;;;30.00;25.75;;;;;7.15;73.11;102971.84;5059324;28;45323;-63
2021/12/18 05:35:13;;;;;;;;;29.25;25.25;;;;;7.09;73.31;102952.47;5059879;27;45545;-60
2021/12/18 05:38:04;;;;;;;;;26.00;22.00;;;;;7.06;73.24;102963.09;5076585;27;46265;-62
2021/12/18 05:40:27;;;;;;;;;33.75;26.75;;;;;7.08;73.58;102971.00;5081415;27;45524;-63
2021/12/18 05:42:53;;;;;;;;;31.00;24.75;;;;;7.07;73.10;102974.56;5063243;28;45449;-61
2021/12/18 05:45:20;;;;;;;;;26.75;24.50;;;;;7.11;73.06;102976.28;5077517;27;45426;-61
2021/12/18 05:47:46;;;;;;;;;27.25;26.75;;;;;7.13;72.77;102958.63;5059127;28;48178;-64
2021/12/18 05:50:14;;;;;;;;;37.25;27.50;;;;;7.12;73.29;102961.28;5060290;27;45274;-62
2021/12/18 05:52:41;;;;;;;;;28.50;27.50;;;;;7.12;72.63;102969.22;5077833;27;45803;-63
2021/12/18 05:55:08;;;;;;;;;33.00;23.00;;;;;7.14;73.17;102970.09;5079097;27;45651;-61
2021/12/18 05:57:34;;;;;;;;;30.00;26.75;;;;;7.12;72.67;102956.00;5070529;28;47736;-63
2021/12/18 06:00:00;;;;;;;;;33.75;29.25;;;;;7.10;72.99;102962.19;5075140;27;45486;-62
2021/12/18 06:02:26;;;;;;;;;36.50;32.00;;;;;7.13;72.79;102949.81;5079023;27;45173;-60
2021/12/18 06:04:51;;;;;;;;;33.00;27.75;;;;;7.17;72.35;102962.16;5077380;27;45304;-61
2021/12/18 06:07:28;;;;;;;;;38.25;26.75;;;;;7.09;72.88;102946.31;5081154;27;45607;-63
2021/12/18 06:09:54;;;;;;;;;37.75;31.00;;;;;7.13;72.71;102960.41;5077248;27;45489;-61
2021/12/18 06:12:20;;;;;;;;;28.00;26.50;;;;;7.11;73.10;102955.13;5077188;27;45346;-64
2021/12/18 06:14:46;;;;;;;;;36.50;24.25;;;;;7.12;72.87;102953.34;5089503;27;45692;-62
2021/12/18 06:17:11;;;;;;;;;37.00;28.00;;;;;7.14;72.83;102956.88;5058264;28;47836;-62
2021/12/18 06:19:36;;;;;;;;;32.75;31.00;;;;;7.05;73.12;102944.56;5077025;28;45457;-63
2021/12/18 06:22:02;;;;;;;;;28.50;26.25;;;;;7.07;73.28;102946.31;5079647;27;45413;-62
2021/12/18 06:24:28;;;;;;;;;32.25;28.00;;;;;7.14;72.82;102946.28;5077013;28;45365;-62
2021/12/18 06:26:55;;;;;;;;;34.25;28.75;;;;;7.18;72.80;102945.41;5075919;28;45307;-65
2021/12/18 06:29:21;;;;;;;;;34.50;28.00;;;;;7.15;73.25;102951.56;5076763;28;45452;-61
2021/12/18 06:31:46;;;;;;;;;24.50;21.50;;;;;7.15;72.99;102948.91;5074362;28;45454;-61
2021/12/18 06:34:12;;;;;;;;;31.75;27.75;;;;;7.18;73.14;102950.69;5074243;28;45193;-61
2021/12/18 06:36:38;;;;;;;;;34.75;31.25;;;;;7.13;72.65;102949.81;5076014;28;45326;-62
2021/12/18 06:39:04;;;;;;;;;31.25;30.25;;;;;7.13;73.52;102952.47;5075527;28;45395;-61
2021/12/18 06:41:30;;;;;;;;;27.75;24.50;;;;;7.12;73.34;102956.00;5046650;28;45513;-63
2021/12/18 06:43:55;;;;;;;;;25.75;23.75;;;;;7.10;73.40;102954.25;5077290;28;45333;-65
2021/12/18 06:46:21;;;;;;;;;31.00;27.00;;;;;7.10;73.45;102959.53;5065674;28;45865;-67
2021/12/18 06:48:46;;;;;;;;;31.00;24.75;;;;;7.07;73.23;102961.31;5074572;28;45527;-68
2021/12/18 06:51:11;;;;;;;;;28.75;24.75;;;;;7.04;73.15;102970.16;5075398;28;45485;-63
2021/12/18 06:53:37;;;;;;;;;30.25;29.00;;;;;7.02;73.73;102963.97;5077013;28;45681;-63
2021/12/18 06:56:03;;;;;;;;;31.50;23.75;;;;;6.99;73.05;102955.16;5075635;28;46136;-62
2021/12/18 06:58:29;;;;;;;;;22.50;16.00;;;;;7.00;73.17;102971.03;5054333;28;45485;-64
2021/12/18 07:00:55;;;;;;;;;34.75;26.50;;;;;6.89;73.34;102959.59;5058601;28;45436;-66
2021/12/18 07:03:21;;;;;;;;;30.75;26.75;;;;;6.96;73.67;102966.63;5075848;28;45586;-61
2021/12/18 07:05:47;;;;;;;;;22.25;20.75;;;;;6.92;73.31;102964.03;5076266;28;46641;-69
2021/12/18 07:08:13;;;;;;;;;31.75;28.75;;;;;6.86;73.57;102959.59;5074198;28;45374;-67
2021/12/18 07:10:38;;;;;;;;;28.50;23.75;;;;;6.83;73.53;102971.97;5053603;28;45417;-67
2021/12/18 07:13:04;;;;;;;;;31.50;24.50;;;;;6.84;73.18;102971.09;5037614;28;45517;-63
2021/12/18 07:15:29;;;;;;;;;23.25;21.50;;;;;6.80;73.68;102975.50;5067040;28;46123;-65
2021/12/18 07:17:54;;;;;;;;;38.25;28.00;;;;;6.81;73.40;102982.56;5075786;28;45227;-65
2021/12/18 07:20:20;;;;;;;;;34.00;24.00;;;;;6.81;73.41;102977.28;5062408;28;45305;-62
2021/12/18 07:22:45;;;;;;;;;30.50;27.75;;;;;6.82;73.33;102979.03;5077205;28;45479;-64
2021/12/18 07:25:11;;;;;;;;;31.75;23.75;;;;;6.83;73.41;102982.56;5075832;28;46399;-63
2021/12/18 07:27:36;;;;;;;;;31.00;26.50;;;;;6.85;73.56;102983.41;5067818;28;45473;-64
2021/12/18 07:30:04;;;;;;;;;31.75;26.00;;;;;6.79;72.69;102973.75;5070420;28;45501;-65
2021/12/18 07:32:29;;;;;;;;;30.00;23.25;;;;;6.76;72.96;102987.84;5076090;28;45323;-64
2021/12/18 07:34:56;;;;;;;;;29.75;26.75;;;;;6.72;72.88;102979.91;5072190;28;45513;-63
2021/12/18 07:37:24;;;;;;;;;36.00;27.75;;;;;6.75;72.58;102986.06;5075391;28;45295;-68
2021/12/18 07:39:50;;;;;;;;;25.75;23.50;;;;;6.75;73.25;102987.84;5076377;28;45528;-67
2021/12/18 07:42:16;;;;;;;;;30.75;25.75;;;;;6.74;73.01;103001.94;5053345;28;45552;-63
2021/12/18 07:44:42;;;;;;;;;28.25;26.25;;;;;6.70;72.78;102989.63;5057137;28;48566;-60
2021/12/18 07:47:08;;;;;;;;;26.00;21.75;;;;;6.65;72.51;102980.84;5065241;28;45461;-65
2021/12/18 07:49:33;;;;;;;;;45.25;32.75;;;;;6.70;73.36;102994.91;5077463;27;45429;-61
2021/12/18 07:52:03;;;;;;;;;34.25;26.75;;;;;6.64;73.11;102993.19;5075253;27;45482;-62
2021/12/18 07:54:29;;;;;;;;;40.25;31.75;;;;;6.66;72.78;102995.81;5073811;28;46161;-61
2021/12/18 07:56:54;;;;;;;;;24.25;24.25;;;;;6.55;73.68;102995.81;5075428;28;45513;-63
2021/12/18 07:59:20;;;;;;;;;26.25;23.75;;;;;6.61;73.48;102994.91;5058671;28;45409;-60
2021/12/18 08:01:45;;;;;;;;;35.25;23.75;;;;;6.56;73.24;102986.13;5057977;28;45327;-61
2021/12/18 08:04:11;;;;;;;;;28.75;23.75;;;;;6.52;73.62;102995.84;5087218;27;45411;-64
2021/12/18 08:06:36;;;;;;;;;30.75;25.75;;;;;6.56;73.31;102999.34;5072893;28;45573;-61
2021/12/18 08:09:02;;;;;;;;;28.00;21.00;;;;;6.59;73.78;103001.97;5075244;28;45640;-63
2021/12/18 08:11:28;;;;;;;;;29.75;26.75;;;;;6.61;73.44;102995.81;5042276;28;45566;-61
2021/12/18 08:13:53;;;;;;;;;36.25;27.00;;;;;6.60;73.79;102985.22;5075120;28;45497;-62
2021/12/18 08:16:19;;;;;;;;;30.75;28.25;;;;;6.63;73.66;102990.50;5056942;28;45467;-61
2021/12/18 08:18:44;;;;;;;;;29.00;29.00;;;;;6.54;73.05;102972.03;5084882;27;45468;-61
2021/12/18 08:21:10;;;;;;;;;35.00;24.25;;;;;6.56;72.98;102996.69;5058122;28;45692;-60
2021/12/18 08:23:35;;;;;;;;;27.50;24.50;;;;;6.24;73.75;102941.19;5078460;28;45878;-62
2021/12/18 08:26:01;;;;;;;;;27.75;25.25;;;;;6.53;73.63;103000.25;5060341;28;45262;-62
2021/12/18 08:28:27;;;;;;;;;21.25;21.00;;;;;6.41;73.64;102977.34;5078173;28;45244;-62
2021/12/18 08:30:52;;;;;;;;;30.75;25.25;;;;;6.43;73.88;102985.25;5077720;28;45224;-60
2021/12/18 08:33:18;;;;;;;;;28.50;25.75;;;;;6.53;73.36;103002.00;5078033;28;45808;-62
2021/12/18 08:35:44;;;;;;;;;33.50;25.25;;;;;6.44;73.26;102987.91;5077693;28;45539;-61
2021/12/18 08:38:10;;;;;;;;;38.00;25.25;;;;;6.56;73.87;103012.56;5077056;28;45404;-61
2021/12/18 08:40:36;;;;;;;;;28.25;24.25;;;;;6.54;73.80;103009.94;5060888;28;45619;-61
2021/12/18 08:43:02;;;;;;;;;29.50;28.50;;;;;6.54;73.61;103009.03;5078298;28;45447;-61
2021/12/18 08:45:28;;;;;;;;;23.00;22.50;;;;;6.51;73.60;102999.38;5078640;28;45350;-61
2021/12/18 08:47:55;;;;;;;;;24.00;21.00;;;;;6.49;73.03;102995.81;5078453;28;45336;-62
2021/12/18 08:50:22;;;;;;;;;32.00;24.25;;;;;6.47;73.00;103002.88;5082504;27;45417;-62
2021/12/18 08:52:51;;;;;;;;;36.00;27.75;;;;;6.57;72.95;103011.69;5090557;27;46474;-61
2021/12/18 08:55:19;;;;;;;;;27.00;25.75;;;;;6.58;73.20;103005.50;5058300;28;45510;-63
2021/12/18 08:57:45;;;;;;;;;27.25;23.25;;;;;6.57;72.91;103003.75;5063479;27;45516;-62
2021/12/18 09:00:16;;;;;;;;;27.00;23.25;;;;;6.62;72.60;103005.50;5085061;27;45563;-61
2021/12/18 09:02:42;;;;;;;;;27.25;20.50;;;;;6.63;72.83;103014.31;5089859;27;46318;-62
2021/12/18 09:05:09;;;;;;;;;31.25;25.00;;;;;6.58;72.88;103010.78;5099111;27;45431;-61
2021/12/18 09:07:35;;;;;;;;;34.75;27.25;;;;;6.54;72.64;102998.47;5063526;28;45457;-63
2021/12/18 09:10:02;;;;;;;;;26.25;23.75;;;;;6.57;73.13;102995.81;5079433;28;45478;-61
2021/12/18 09:12:27;;;;;;;;;34.75;27.00;;;;;6.60;72.44;102993.16;5078886;28;45420;-65
2021/12/18 09:14:53;;;;;;;;;30.75;26.50;;;;;6.63;72.70;103001.09;5078119;28;45216;-59
2021/12/18 09:17:18;;;;;;;;;42.75;29.25;;;;;6.61;72.17;103006.38;5078626;28;45417;-60
2021/12/18 09:19:44;;;;;;;;;30.50;24.00;;;;;6.59;72.11;102994.94;5060526;28;45665;-62
2021/12/18 09:22:09;;;;;;;;;30.25;26.25;;;;;6.56;72.07;103002.00;5059946;28;46368;-64
2021/12/18 09:24:36;;;;;;;;;30.00;26.00;;;;;6.47;72.84;102974.66;5078148;28;45231;-60
2021/12/18 09:27:03;;;;;;;;;19.75;19.75;;;;;6.58;72.65;102984.34;5076680;28;45475;-63
2021/12/18 09:29:29;;;;;;;;;28.25;24.25;;;;;6.58;72.29;102982.59;5078179;28;45413;-61
2021/12/18 09:31:54;;;;;;;;;26.50;23.00;;;;;6.59;72.23;102980.84;5077336;28;46599;-62
2021/12/18 09:34:20;;;;;;;;;26.00;24.00;;;;;6.52;72.84;102968.53;5077354;28;45440;-60
2021/12/18 09:36:46;;;;;;;;;21.50;21.50;;;;;6.48;72.22;102968.50;5077710;28;45670;-61
2021/12/18 09:39:14;;;;;;;;;27.25;25.50;;;;;6.58;72.59;102979.06;5078347;28;45252;-62
2021/12/18 09:41:40;;;;;;;;;24.50;19.00;;;;;6.54;72.18;102966.75;5076163;28;46945;-62
2021/12/18 09:44:06;;;;;;;;;33.25;24.00;;;;;6.65;72.20;102970.25;5077392;28;45468;-62
2021/12/18 09:46:32;;;;;;;;;35.00;28.25;;;;;6.67;71.73;102971.13;5076337;28;45502;-61
2021/12/18 09:48:58;;;;;;;;;30.50;28.00;;;;;6.69;71.57;102972.00;5077075;28;45727;-60
2021/12/18 09:51:27;;;;;;;;;24.50;20.25;;;;;6.81;71.93;102977.28;5077561;28;45425;-63
2021/12/18 09:53:56;;;;;;;;;37.50;24.75;;;;;6.85;71.37;102979.00;5077638;28;45307;-62
2021/12/18 09:56:23;;;;;;;;;28.00;25.25;;;;;6.92;71.11;102975.47;5059119;28;45432;-60
2021/12/18 09:58:49;;;;;;;;;30.50;24.75;;;;;7.02;71.02;102985.13;5059895;28;45462;-60
2021/12/18 10:01:17;;;;;;;;;25.75;24.00;;;;;7.07;71.10;102986.00;5077625;28;46376;-61
2021/12/18 10:03:58;;;;;;;;;27.50;24.50;;;;;7.10;70.72;102980.69;5055694;28;45521;-62
2021/12/18 10:06:41;;;;;;;;;28.25;27.25;;;;;7.07;71.14;102970.13;5073161;28;45480;-53
2021/12/18 10:09:31;;;;;;;;;28.00;26.75;;;;;7.00;71.67;102978.97;5064453;27;45276;-55
2021/12/18 10:11:59;;;;;;;;;29.25;24.75;;;;;7.01;71.84;102963.97;5097079;27;45323;-60
2021/12/18 10:14:54;;;;;;;;;29.25;27.25;;;;;7.12;71.81;102971.88;5076184;27;45372;-59
2021/12/18 10:17:33;;;;;;;;;29.50;23.25;;;;;7.20;71.97;102970.09;5034205;28;45409;-51
2021/12/18 10:20:11;;;;;;;;;40.25;32.25;;;;;7.40;71.45;102974.38;5057304;28;45700;-62
2021/12/18 10:22:42;;;;;;;;;38.00;27.75;;;;;7.45;70.54;102968.22;5077178;28;45271;-62
2021/12/18 10:25:08;;;;;;;;;29.25;26.50;;;;;7.48;70.85;102971.72;5077392;28;45515;-63
2021/12/18 10:27:36;;;;;;;;;33.25;27.50;;;;;7.55;71.05;102964.59;5076523;28;45615;-62
2021/12/18 10:30:11;;;;;;;;;30.75;28.00;;;;;7.60;70.34;102974.28;5058958;28;45323;-62
2021/12/18 10:32:37;;;;;;;;;29.00;24.50;;;;;7.68;69.83;102969.84;5076627;28;45342;-63
2021/12/18 10:35:03;;;;;;;;;28.75;25.00;;;;;7.71;69.88;102961.00;5063564;28;45268;-62
2021/12/18 10:37:33;;;;;;;;;89.00;65.50;;;;;7.80;70.04;102954.72;5077626;28;45340;-63
2021/12/18 10:40:10;;;;;;;;;30.75;26.00;;;;;7.87;68.98;102953.81;5077539;28;45529;-62
2021/12/18 10:42:42;;;;;;;;;26.00;23.50;;;;;7.88;69.36;102944.97;5077130;28;45836;-63
2021/12/18 10:45:11;;;;;;;;;25.75;22.25;;;;;8.04;68.80;102951.03;5075715;28;45350;-64
2021/12/18 10:47:43;;;;;;;;;32.75;26.50;;;;;8.12;68.48;102947.44;5076912;28;45414;-62
2021/12/18 10:50:18;;;;;;;;;35.00;24.00;;;;;8.17;68.87;102948.25;5076939;28;45514;-61
2021/12/18 10:52:44;;;;;;;;;34.00;28.00;;;;;8.28;67.53;102943.75;5075733;28;45627;-64
2021/12/18 10:55:09;;;;;;;;;24.00;18.25;;;;;8.23;66.62;102937.63;5076185;28;45443;-62
2021/12/18 10:57:35;;;;;;;;;29.50;26.75;;;;;8.22;67.57;102930.56;5074428;28;45735;-60
2021/12/18 11:00:00;;;;;;;;;27.25;18.25;;;;;8.31;66.85;102931.34;5077110;28;45562;-61
2021/12/18 11:02:27;;;;;;;;;29.50;29.00;;;;;8.38;67.52;102930.47;5076401;28;45552;-64
2021/12/18 11:05:15;;;;;;;;;32.25;24.75;;;;;8.41;67.32;102918.03;5076218;28;45321;-62
2021/12/18 11:07:44;;;;;;;;;31.75;27.25;;;;;8.54;66.86;102927.63;5076657;28;45344;-62
2021/12/18 11:10:53;;;;;;;;;31.50;23.25;;;;;8.58;66.63;102926.69;5076467;28;45280;-61
2021/12/18 11:16:04;;;;;;;;;25.50;21.50;;;;;8.71;66.25;102929.22;5075846;28;45457;-62
2021/12/18 11:18:32;;;;;;;;;26.50;21.25;;;;;8.67;65.96;102912.47;5071643;28;45270;-63
2021/12/18 11:20:57;;;;;;;;;29.50;25.75;;;;;8.76;66.08;102922.97;5058546;28;45314;-63
2021/12/18 11:23:39;;;;;;;;;50.25;41.00;;;;;8.69;65.72;102908.00;5076031;28;45385;-62
2021/12/18 11:26:06;;;;;;;;;26.75;22.50;;;;;8.73;65.74;102928.31;5076223;28;45319;-63
2021/12/18 11:28:32;;;;;;;;;24.50;20.75;;;;;8.71;64.93;102914.16;5076303;28;45421;-64
2021/12/18 11:30:58;;;;;;;;;29.75;27.50;;;;;8.73;65.34;102933.63;5076484;28;45477;-61
2021/12/18 11:33:23;;;;;;;;;27.25;20.25;;;;;8.80;65.80;102926.47;5076139;28;45492;-62
2021/12/18 11:35:49;;;;;;;;;25.75;23.50;;;;;8.77;65.76;102927.38;5076175;28;45467;-62
2021/12/18 11:38:15;;;;;;;;;26.25;23.00;;;;;8.81;65.69;102923.78;5075441;28;45333;-61
2021/12/18 11:40:42;;;;;;;;;15.00;15.00;;;;;8.87;65.91;102917.56;5076118;28;45381;-62
2021/12/18 11:43:08;;;;;;;;;30.50;29.25;;;;;8.96;66.20;102913.88;5057651;28;47908;-64
2021/12/18 11:45:36;;;;;;;;;39.25;32.00;;;;;9.00;65.53;102910.31;5057379;28;45461;-62
2021/12/18 11:48:04;;;;;;;;;34.25;27.50;;;;;9.01;65.43;102904.13;5075783;28;45344;-62
2021/12/18 11:50:34;;;;;;;;;32.75;26.50;;;;;9.04;65.77;102902.28;5075711;28;45533;-62
2021/12/18 11:53:06;;;;;;;;;25.00;23.00;;;;;9.08;65.62;102904.00;5075580;28;46203;-62
2021/12/18 11:55:52;;;;;;;;;27.75;23.25;;;;;9.16;66.06;102906.56;5057485;28;45538;-63
2021/12/18 11:58:33;;;;;;;;;21.75;21.75;;;;;9.19;65.38;102895.88;5079048;27;45557;-63